createdAt,value
2023-03-07T00:00:16.169Z,0.30
2023-03-07T00:03:04.233Z,0.20
2023-03-07T00:05:32.252Z,0.20
2023-03-07T00:07:59.846Z,0.20
2023-03-07T00:10:27.281Z,0.20
2023-03-07T00:12:54.407Z,0.20
2023-03-07T00:15:22.025Z,0.30
2023-03-07T00:17:49.171Z,0.20
2023-03-07T00:20:17.028Z,0.20
2023-03-07T00:22:46.846Z,0.20
2023-03-07T00:25:15.320Z,0.20
2023-03-07T00:27:42.704Z,0.20
2023-03-07T00:30:12.566Z,0.40
2023-03-07T00:32:39.942Z,0.10
2023-03-07T00:35:08.045Z,0.50
2023-03-07T00:37:35.214Z,0.10
2023-03-07T00:40:02.804Z,0.20
2023-03-07T00:42:29.934Z,0.20
2023-03-07T00:44:57.440Z,0.00
2023-03-07T00:47:24.694Z,0.00
2023-03-07T00:49:52.346Z,0.70
2023-03-07T00:52:19.872Z,-0.10
2023-03-07T00:54:47.399Z,-0.20
2023-03-07T00:57:14.689Z,-0.20
2023-03-07T00:59:42.136Z,-0.10
2023-03-07T01:02:09.270Z,-0.20
2023-03-07T01:04:36.848Z,-0.10
2023-03-07T01:07:04.198Z,-0.20
2023-03-07T01:09:31.707Z,-0.20
2023-03-07T01:11:59.269Z,-0.20
2023-03-07T01:14:26.745Z,-0.20
2023-03-07T01:16:54.203Z,-0.20
2023-03-07T01:19:21.844Z,-0.20
2023-03-07T01:21:48.948Z,0.10
2023-03-07T01:24:17.131Z,-0.20
2023-03-07T01:26:44.567Z,1.20
2023-03-07T01:29:12.688Z,-0.20
2023-03-07T01:31:39.872Z,-0.40
2023-03-07T01:34:08.178Z,0.20
2023-03-07T01:36:37.640Z,-0.50
2023-03-07T01:39:14.437Z,0.20
2023-03-07T01:41:50.180Z,-0.10
2023-03-07T01:44:21.929Z,-0.50
2023-03-07T01:46:53.717Z,-0.60
2023-03-07T01:49:42.869Z,-0.60
2023-03-07T01:52:14.896Z,-0.60
2023-03-07T01:54:51.450Z,-0.60
2023-03-07T01:57:25.158Z,-0.60
2023-03-07T01:59:56.330Z,-0.60
2023-03-07T02:02:24.596Z,-0.70
2023-03-07T02:05:11.659Z,-0.70
2023-03-07T02:07:48.313Z,-0.70
2023-03-07T02:10:20.188Z,-0.70
2023-03-07T02:12:47.686Z,-0.80
2023-03-07T02:15:16.003Z,-0.80
2023-03-07T02:17:44.472Z,-0.90
2023-03-07T02:20:49.979Z,-0.90
2023-03-07T02:23:35.248Z,-1.00
2023-03-07T02:26:07.471Z,-1.00
2023-03-07T02:28:35.731Z,-1.10
2023-03-07T02:31:06.783Z,-1.10
2023-03-07T02:33:36.444Z,-1.20
2023-03-07T02:36:12.928Z,-1.30
2023-03-07T02:38:48.927Z,-1.30
2023-03-07T02:41:21.506Z,-1.30
2023-03-07T02:43:48.841Z,-1.50
2023-03-07T02:46:16.332Z,-1.30
2023-03-07T02:48:43.559Z,-0.80
2023-03-07T02:51:12.157Z,-1.60
2023-03-07T02:53:40.351Z,-1.60
2023-03-07T02:56:08.106Z,-1.60
2023-03-07T02:58:35.645Z,-1.70
2023-03-07T03:01:03.802Z,-1.60
2023-03-07T03:03:31.566Z,-1.40
2023-03-07T03:05:59.148Z,-1.80
2023-03-07T03:08:26.341Z,-1.80
2023-03-07T03:10:54.859Z,-1.80
2023-03-07T03:13:24.686Z,-1.90
2023-03-07T03:15:58.625Z,-1.60
2023-03-07T03:18:28.903Z,-2.00
2023-03-07T03:20:56.648Z,-1.80
2023-03-07T03:23:24.097Z,-2.00
2023-03-07T03:25:59.927Z,-2.00
2023-03-07T03:28:29.517Z,-2.10
2023-03-07T03:31:02.071Z,-2.10
2023-03-07T03:33:30.745Z,-2.10
2023-03-07T03:36:00.724Z,-2.10
2023-03-07T03:38:28.038Z,-2.20
2023-03-07T03:40:56.848Z,-2.20
2023-03-07T03:43:24.124Z,-2.20
2023-03-07T03:45:56.156Z,-2.20
2023-03-07T03:48:25.460Z,-2.30
2023-03-07T03:51:05.117Z,-2.20
2023-03-07T03:53:34.508Z,-2.30
2023-03-07T03:56:07.565Z,-1.90
2023-03-07T03:58:36.075Z,-2.30
2023-03-07T04:01:07.846Z,-2.30
2023-03-07T04:03:38.690Z,-2.30
2023-03-07T04:06:12.716Z,-0.50
2023-03-07T04:08:41.786Z,-2.30
2023-03-07T04:11:09.246Z,-2.40
2023-03-07T04:13:37.401Z,-2.40
2023-03-07T04:16:05.281Z,-2.40
2023-03-07T04:18:34.732Z,-2.50
2023-03-07T04:21:02.701Z,-2.50
2023-03-07T04:23:30.150Z,-2.40
2023-03-07T04:25:59.666Z,-2.40
2023-03-07T04:28:46.381Z,-2.40
2023-03-07T04:31:23.555Z,-2.40
2023-03-07T04:33:52.221Z,-2.40
2023-03-07T04:36:20.543Z,-2.30
2023-03-07T04:38:48.866Z,-2.30
2023-03-07T04:41:21.895Z,-2.30
2023-03-07T04:43:53.340Z,-2.30
2023-03-07T04:46:22.419Z,-2.40
2023-03-07T04:48:50.011Z,-2.40
2023-03-07T04:51:17.332Z,-2.40
2023-03-07T04:53:45.024Z,-2.40
2023-03-07T04:56:15.267Z,-2.40
2023-03-07T04:58:45.541Z,-2.30
2023-03-07T05:01:13.667Z,-2.40
2023-03-07T05:03:41.551Z,-2.50
2023-03-07T05:06:13.905Z,-2.50
2023-03-07T05:08:41.676Z,-2.50
2023-03-07T05:11:09.124Z,-2.50
2023-03-07T05:13:36.718Z,-2.60
2023-03-07T05:16:04.197Z,-2.60
2023-03-07T05:18:32.510Z,-2.60
2023-03-07T05:21:00.581Z,-2.60
2023-03-07T05:23:28.923Z,-2.60
2023-03-07T05:25:56.804Z,-2.50
2023-03-07T05:28:25.538Z,-2.70
2023-03-07T05:30:53.137Z,-2.60
2023-03-07T05:33:21.350Z,-2.70
2023-03-07T05:35:49.261Z,-2.70
2023-03-07T05:38:18.176Z,-2.10
2023-03-07T05:40:45.376Z,-2.70
2023-03-07T05:43:14.561Z,-2.70
2023-03-07T05:45:41.743Z,-2.70
2023-03-07T05:48:09.292Z,-2.70
2023-03-07T05:50:39.061Z,-2.60
2023-03-07T05:53:07.278Z,-2.60
2023-03-07T05:55:34.908Z,-2.50
2023-03-07T05:58:02.855Z,-1.50
2023-03-07T06:00:30.483Z,-2.40
2023-03-07T06:03:04.505Z,-2.30
2023-03-07T06:05:32.798Z,-2.30
2023-03-07T06:08:00.569Z,-2.20
2023-03-07T06:10:28.026Z,-2.20
2023-03-07T06:12:56.020Z,-2.10
2023-03-07T06:15:24.715Z,-0.10
2023-03-07T06:17:59.581Z,-2.00
2023-03-07T06:20:26.781Z,-1.80
2023-03-07T06:22:57.041Z,-1.40
2023-03-07T06:25:24.319Z,-2.00
2023-03-07T06:27:52.022Z,-1.90
2023-03-07T06:30:19.376Z,-1.90
2023-03-07T06:32:46.775Z,-1.90
2023-03-07T06:35:14.077Z,-1.80
2023-03-07T06:37:41.632Z,-1.80
2023-03-07T06:40:10.772Z,-1.70
2023-03-07T06:42:39.689Z,-1.70
2023-03-07T06:45:08.813Z,-1.70
2023-03-07T06:47:36.488Z,-1.70
2023-03-07T06:50:05.750Z,-1.60
2023-03-07T06:52:34.650Z,-1.60
2023-03-07T06:55:01.861Z,-1.50
2023-03-07T06:57:30.838Z,-1.50
2023-03-07T06:59:58.446Z,-1.50
2023-03-07T07:02:27.299Z,-2.30
2023-03-07T07:04:55.407Z,-1.40
2023-03-07T07:07:22.943Z,-1.40
2023-03-07T07:09:52.280Z,-1.30
2023-03-07T07:12:20.041Z,-1.30
2023-03-07T07:14:47.878Z,-1.30
2023-03-07T07:17:15.814Z,-1.00
2023-03-07T07:19:43.143Z,-1.20
2023-03-07T07:22:12.096Z,-1.20
2023-03-07T07:24:39.834Z,-0.50
2023-03-07T07:27:09.935Z,-1.10
2023-03-07T07:29:38.214Z,-0.70
2023-03-07T07:32:06.767Z,-1.00
2023-03-07T07:34:34.414Z,-1.00
2023-03-07T07:37:02.642Z,-0.90
2023-03-07T07:39:30.146Z,-0.30
2023-03-07T07:41:57.746Z,-0.80
2023-03-07T07:44:31.597Z,0.20
2023-03-07T07:47:03.128Z,-0.80
2023-03-07T07:49:30.611Z,-0.70
2023-03-07T07:51:58.481Z,0.40
2023-03-07T07:54:25.804Z,-0.60
2023-03-07T07:56:53.597Z,0.20
2023-03-07T07:59:22.250Z,0.40
2023-03-07T08:01:50.042Z,-0.10
2023-03-07T08:04:17.157Z,0.10
2023-03-07T08:06:44.651Z,0.20
2023-03-07T08:09:12.110Z,-0.20
2023-03-07T08:11:39.527Z,-0.20
2023-03-07T08:14:06.797Z,-0.70
2023-03-07T08:16:34.187Z,-0.10
2023-03-07T08:19:01.584Z,0.10
2023-03-07T08:21:29.104Z,0.00
2023-03-07T08:23:57.005Z,0.10
2023-03-07T08:26:24.941Z,0.70
2023-03-07T08:28:52.141Z,0.20
2023-03-07T08:31:23.770Z,1.10
2023-03-07T08:33:51.709Z,0.40
2023-03-07T08:36:19.748Z,0.50
2023-03-07T08:38:54.046Z,0.40
2023-03-07T08:41:23.011Z,0.50
2023-03-07T08:43:50.439Z,0.60
2023-03-07T08:46:18.037Z,0.80
2023-03-07T08:48:45.342Z,0.60
2023-03-07T08:51:15.859Z,0.80
2023-03-07T08:53:44.893Z,0.80
2023-03-07T08:56:15.916Z,0.90
2023-03-07T08:58:43.387Z,0.90
2023-03-07T09:01:12.963Z,0.90
2023-03-07T09:03:40.387Z,1.00
2023-03-07T09:06:08.408Z,1.10
2023-03-07T09:08:35.628Z,1.00
2023-03-07T09:11:05.504Z,1.00
2023-03-07T09:13:36.152Z,1.00
2023-03-07T09:16:08.485Z,1.50
2023-03-07T09:18:36.323Z,0.80
2023-03-07T09:21:05.316Z,0.80
2023-03-07T09:23:33.012Z,0.80
2023-03-07T09:26:05.811Z,0.80
2023-03-07T09:28:33.133Z,0.70
2023-03-07T09:31:06.133Z,0.70
2023-03-07T09:33:33.791Z,0.80
2023-03-07T09:36:05.284Z,0.90
2023-03-07T09:38:32.487Z,0.90
2023-03-07T09:41:08.844Z,1.00
2023-03-07T09:43:57.803Z,1.00
2023-03-07T09:47:13.740Z,1.10
2023-03-07T09:49:51.127Z,1.20
2023-03-07T09:52:22.126Z,1.20
2023-03-07T09:55:01.728Z,1.30
2023-03-07T09:57:41.061Z,1.40
2023-03-07T10:00:35.361Z,1.50
2023-03-07T10:03:16.472Z,1.60
2023-03-07T10:05:51.676Z,1.70
2023-03-07T10:08:23.976Z,1.80
2023-03-07T10:11:00.349Z,1.90
2023-03-07T10:13:48.601Z,2.00
2023-03-07T10:16:36.038Z,2.10
2023-03-07T10:19:12.382Z,2.20
2023-03-07T10:22:01.517Z,2.30
2023-03-07T10:24:34.461Z,2.50
2023-03-07T10:27:01.674Z,2.60
2023-03-07T10:29:37.985Z,2.90
2023-03-07T10:32:20.286Z,2.90
2023-03-07T10:34:57.962Z,3.00
2023-03-07T10:37:37.362Z,3.10
2023-03-07T10:40:05.466Z,3.00
2023-03-07T10:42:36.914Z,2.90
2023-03-07T10:45:04.836Z,3.00
2023-03-07T10:47:31.948Z,3.00
2023-03-07T10:50:37.271Z,3.10
2023-03-07T10:53:08.338Z,3.60
2023-03-07T10:55:35.845Z,3.90
2023-03-07T10:58:22.320Z,4.00
2023-03-07T11:01:00.413Z,4.10
2023-03-07T11:03:53.252Z,4.20
2023-03-07T11:06:30.760Z,4.30
2023-03-07T11:09:07.459Z,4.40
2023-03-07T11:11:36.209Z,4.40
2023-03-07T11:14:09.191Z,4.40
2023-03-07T11:16:52.854Z,4.40
2023-03-07T11:19:40.037Z,4.50
2023-03-07T11:22:17.699Z,4.40
2023-03-07T11:25:25.295Z,4.40
2023-03-07T11:27:58.362Z,4.40
2023-03-07T11:30:49.075Z,4.30
2023-03-07T11:33:29.326Z,4.30
2023-03-07T11:36:32.386Z,4.30
2023-03-07T11:39:09.591Z,4.30
2023-03-07T11:41:38.463Z,4.40
2023-03-07T11:44:35.807Z,4.50
2023-03-07T11:47:18.150Z,4.50
2023-03-07T11:50:24.110Z,4.60
2023-03-07T11:53:23.399Z,4.50
2023-03-07T11:56:12.707Z,4.50
2023-03-07T11:58:39.776Z,4.50
2023-03-07T12:01:45.345Z,4.40
2023-03-07T12:04:40.169Z,4.30
2023-03-07T12:07:41.374Z,4.20
2023-03-07T12:10:26.820Z,4.10
2023-03-07T12:13:25.111Z,4.10
2023-03-07T12:16:24.245Z,4.00
2023-03-07T12:18:58.067Z,4.10
2023-03-07T12:21:34.447Z,4.00
2023-03-07T12:24:17.858Z,4.00
2023-03-07T12:26:57.385Z,4.00
2023-03-07T12:29:57.573Z,4.00
2023-03-07T12:32:26.742Z,4.10
2023-03-07T12:35:17.372Z,4.20
2023-03-07T12:38:13.921Z,4.10
2023-03-07T12:41:19.701Z,4.20
2023-03-07T12:43:52.078Z,4.30
2023-03-07T12:46:33.305Z,4.30
2023-03-07T12:49:13.535Z,4.30
2023-03-07T12:51:47.802Z,4.20
2023-03-07T12:54:14.944Z,4.10
2023-03-07T12:56:55.239Z,4.20
2023-03-07T12:59:23.276Z,4.20
2023-03-07T13:02:27.606Z,4.10
2023-03-07T13:04:55.225Z,4.20
2023-03-07T13:07:25.250Z,4.10
2023-03-07T13:09:54.873Z,4.20
2023-03-07T13:12:30.441Z,4.10
2023-03-07T13:14:59.102Z,4.00
2023-03-07T13:17:35.125Z,4.00
2023-03-07T13:20:23.943Z,3.90
2023-03-07T13:22:53.227Z,4.00
2023-03-07T13:25:20.635Z,4.00
2023-03-07T13:27:53.773Z,4.00
2023-03-07T13:30:28.903Z,3.90
2023-03-07T13:32:57.793Z,3.90
2023-03-07T13:35:25.003Z,3.90
2023-03-07T13:38:03.614Z,3.90
2023-03-07T13:40:49.628Z,4.00
2023-03-07T13:43:20.044Z,4.00
2023-03-07T13:45:54.172Z,4.00
2023-03-07T13:48:30.528Z,4.00
2023-03-07T13:51:03.258Z,4.00
2023-03-07T13:53:33.509Z,3.90
2023-03-07T13:56:15.879Z,3.90
2023-03-07T13:58:56.525Z,3.80
2023-03-07T14:01:35.802Z,3.80
2023-03-07T14:04:38.987Z,3.80
2023-03-07T14:07:40.390Z,3.80
2023-03-07T14:10:27.984Z,3.80
2023-03-07T14:13:24.700Z,3.80
2023-03-07T14:16:12.463Z,3.90
2023-03-07T14:18:53.636Z,3.90
2023-03-07T14:21:27.393Z,3.90
2023-03-07T14:24:13.161Z,3.90
2023-03-07T14:26:44.237Z,3.80
2023-03-07T14:29:29.877Z,3.90
2023-03-07T14:32:01.034Z,3.80
2023-03-07T14:34:33.784Z,3.90
2023-03-07T14:37:16.103Z,3.90
2023-03-07T14:39:58.549Z,3.80
2023-03-07T14:42:44.527Z,3.90
2023-03-07T14:45:47.368Z,3.90
2023-03-07T14:48:51.977Z,3.90
2023-03-07T14:51:23.367Z,4.00
2023-03-07T14:53:50.817Z,4.00
2023-03-07T14:56:29.943Z,4.00
2023-03-07T14:59:00.950Z,4.00
2023-03-07T15:01:35.634Z,4.00
2023-03-07T15:04:08.531Z,4.00
2023-03-07T15:06:43.511Z,4.00
2023-03-07T15:09:11.767Z,4.00
2023-03-07T15:11:44.631Z,4.00
2023-03-07T15:14:30.463Z,4.00
2023-03-07T15:17:03.976Z,3.90
2023-03-07T15:19:42.912Z,4.00
2023-03-07T15:22:30.052Z,4.00
2023-03-07T15:24:57.883Z,4.00
2023-03-07T15:27:31.554Z,4.00
2023-03-07T15:30:02.208Z,3.90
2023-03-07T15:32:39.745Z,3.90
2023-03-07T15:35:11.019Z,3.90
2023-03-07T15:37:59.974Z,3.90
2023-03-07T15:40:31.677Z,3.90
2023-03-07T15:43:02.758Z,3.90
2023-03-07T15:45:32.116Z,3.80
2023-03-07T15:48:08.596Z,3.90
2023-03-07T15:50:36.430Z,3.80
2023-03-07T15:53:20.174Z,3.80
2023-03-07T15:55:57.241Z,3.80
2023-03-07T15:58:27.056Z,3.90
2023-03-07T16:01:21.418Z,3.80
2023-03-07T16:04:00.793Z,3.90
2023-03-07T16:06:33.484Z,3.90
2023-03-07T16:09:00.698Z,3.90
2023-03-07T16:11:28.123Z,3.90
2023-03-07T16:13:55.395Z,4.00
2023-03-07T16:16:25.565Z,4.00
2023-03-07T16:18:54.477Z,4.00
2023-03-07T16:21:22.408Z,4.00
2023-03-07T16:23:50.874Z,4.00
2023-03-07T16:26:21.814Z,4.10
2023-03-07T16:28:50.436Z,4.10
2023-03-07T16:31:19.511Z,4.10
2023-03-07T16:33:47.898Z,4.10
2023-03-07T16:36:16.401Z,4.10
2023-03-07T16:38:44.019Z,4.10
2023-03-07T16:41:22.097Z,4.20
2023-03-07T16:43:58.938Z,4.20
2023-03-07T16:46:29.019Z,4.20
2023-03-07T16:48:56.365Z,4.20
2023-03-07T16:51:26.059Z,4.20
2023-03-07T16:53:54.025Z,4.20
2023-03-07T16:56:26.441Z,4.10
2023-03-07T16:58:53.970Z,4.20
2023-03-07T17:01:21.405Z,4.10
2023-03-07T17:03:48.656Z,4.10
2023-03-07T17:06:17.364Z,4.00
2023-03-07T17:08:45.675Z,4.00
2023-03-07T17:11:28.031Z,4.00
2023-03-07T17:13:58.707Z,4.00
2023-03-07T17:16:29.871Z,3.90
2023-03-07T17:18:57.327Z,3.90
2023-03-07T17:21:24.883Z,3.80
2023-03-07T17:23:51.994Z,3.80
2023-03-07T17:26:26.307Z,3.90
2023-03-07T17:28:54.191Z,3.80
2023-03-07T17:31:21.789Z,3.70
2023-03-07T17:33:49.835Z,3.70
2023-03-07T17:36:17.588Z,3.70
2023-03-07T17:38:44.779Z,3.70
2023-03-07T17:41:12.265Z,3.60
2023-03-07T17:43:39.587Z,3.60
2023-03-07T17:46:11.406Z,3.60
2023-03-07T17:48:38.873Z,3.50
2023-03-07T17:51:10.445Z,3.50
2023-03-07T17:53:38.692Z,3.50
2023-03-07T17:56:11.127Z,3.40
2023-03-07T17:58:41.067Z,3.40
2023-03-07T18:01:11.225Z,3.40
2023-03-07T18:03:39.104Z,3.40
2023-03-07T18:06:07.392Z,3.30
2023-03-07T18:08:35.391Z,3.30
2023-03-07T18:11:05.124Z,3.30
2023-03-07T18:13:32.706Z,3.30
2023-03-07T18:16:00.488Z,3.30
2023-03-07T18:18:32.897Z,3.20
2023-03-07T18:21:02.765Z,3.20
2023-03-07T18:23:29.891Z,3.20
2023-03-07T18:26:02.399Z,3.20
2023-03-07T18:28:30.220Z,3.10
2023-03-07T18:31:06.103Z,3.10
2023-03-07T18:33:34.383Z,3.10
2023-03-07T18:36:02.257Z,3.00
2023-03-07T18:38:30.321Z,3.00
2023-03-07T18:41:07.600Z,3.00
2023-03-07T18:43:35.177Z,3.00
2023-03-07T18:46:06.888Z,2.90
2023-03-07T18:48:34.353Z,2.90
2023-03-07T18:51:04.672Z,2.90
2023-03-07T18:53:32.469Z,2.90
2023-03-07T18:56:08.268Z,2.90
2023-03-07T18:58:35.665Z,2.90
2023-03-07T19:01:10.630Z,2.90
2023-03-07T19:03:37.898Z,2.90
2023-03-07T19:06:05.703Z,2.90
2023-03-07T19:08:33.176Z,2.90
2023-03-07T19:11:06.050Z,2.90
2023-03-07T19:13:33.566Z,2.90
2023-03-07T19:16:10.955Z,2.90
2023-03-07T19:18:39.077Z,2.90
2023-03-07T19:21:07.925Z,2.90
2023-03-07T19:23:35.174Z,3.00
2023-03-07T19:26:04.121Z,2.90
2023-03-07T19:28:31.568Z,2.90
2023-03-07T19:31:05.949Z,2.90
2023-03-07T19:33:33.148Z,2.90
2023-03-07T19:36:12.765Z,3.00
2023-03-07T19:38:40.751Z,2.90
2023-03-07T19:41:12.761Z,3.00
2023-03-07T19:43:40.841Z,3.00
2023-03-07T19:46:09.923Z,3.00
2023-03-07T19:48:39.825Z,3.00
2023-03-07T19:51:16.309Z,3.00
2023-03-07T19:53:45.219Z,3.00
2023-03-07T19:56:13.940Z,3.00
2023-03-07T19:58:41.224Z,3.00
2023-03-07T20:01:15.643Z,3.00
2023-03-07T20:03:43.458Z,3.00
2023-03-07T20:06:16.304Z,3.10
2023-03-07T20:08:44.416Z,3.10
2023-03-07T20:11:15.798Z,3.10
2023-03-07T20:13:45.729Z,3.10
2023-03-07T20:16:14.930Z,3.10
2023-03-07T20:18:42.510Z,3.10
2023-03-07T20:21:12.862Z,3.10
2023-03-07T20:23:42.996Z,3.10
2023-03-07T20:26:15.943Z,3.10
2023-03-07T20:28:43.606Z,3.10
2023-03-07T20:31:12.338Z,3.20
2023-03-07T20:33:45.141Z,3.10
2023-03-07T20:36:16.806Z,3.10
2023-03-07T20:38:44.331Z,3.20
2023-03-07T20:41:16.182Z,3.20
2023-03-07T20:43:43.585Z,3.20
2023-03-07T20:46:13.770Z,3.20
2023-03-07T20:48:42.014Z,3.20
2023-03-07T20:51:16.176Z,3.20
2023-03-07T20:53:43.345Z,3.30
2023-03-07T20:56:11.011Z,3.30
2023-03-07T20:58:38.281Z,3.30
2023-03-07T21:01:06.228Z,3.30
2023-03-07T21:03:33.883Z,3.30
2023-03-07T21:06:03.694Z,3.30
2023-03-07T21:08:33.149Z,3.40
2023-03-07T21:11:05.018Z,3.40
2023-03-07T21:13:35.032Z,3.40
2023-03-07T21:16:20.284Z,3.40
2023-03-07T21:18:48.934Z,3.50
2023-03-07T21:21:21.402Z,3.50
2023-03-07T21:23:49.009Z,3.50
2023-03-07T21:26:21.809Z,3.50
2023-03-07T21:28:53.152Z,3.50
2023-03-07T21:31:26.597Z,3.50
2023-03-07T21:33:56.241Z,3.50
2023-03-07T21:36:27.121Z,3.60
2023-03-07T21:38:55.145Z,3.60
2023-03-07T21:41:24.967Z,3.60
2023-03-07T21:43:53.342Z,3.60
2023-03-07T21:46:20.907Z,3.60
2023-03-07T21:48:48.182Z,3.60
2023-03-07T21:51:15.934Z,3.60
2023-03-07T21:53:43.305Z,3.60
2023-03-07T21:56:13.142Z,3.70
2023-03-07T21:58:40.984Z,3.60
2023-03-07T22:01:17.894Z,3.50
2023-03-07T22:03:45.187Z,3.40
2023-03-07T22:06:15.097Z,3.20
2023-03-07T22:08:42.993Z,2.90
2023-03-07T22:11:11.793Z,2.60
2023-03-07T22:13:40.579Z,2.40
2023-03-07T22:16:14.324Z,2.30
2023-03-07T22:18:41.896Z,2.10
2023-03-07T22:21:14.225Z,1.90
2023-03-07T22:23:42.163Z,1.80
2023-03-07T22:26:11.848Z,1.70
2023-03-07T22:28:41.111Z,1.60
2023-03-07T22:31:11.596Z,1.50
2023-03-07T22:33:40.128Z,1.50
2023-03-07T22:36:08.956Z,1.40
2023-03-07T22:38:36.136Z,1.30
2023-03-07T22:41:06.301Z,1.30
2023-03-07T22:43:35.447Z,1.30
2023-03-07T22:46:03.372Z,1.20
2023-03-07T22:48:30.868Z,1.20
2023-03-07T22:50:58.677Z,1.10
2023-03-07T22:53:31.038Z,1.10
2023-03-07T22:55:59.857Z,1.20
2023-03-07T22:58:28.337Z,1.10
2023-03-07T23:00:55.970Z,1.20
2023-03-07T23:03:23.522Z,1.10
2023-03-07T23:05:51.178Z,1.10
2023-03-07T23:08:18.323Z,1.10
2023-03-07T23:10:45.910Z,1.10
2023-03-07T23:13:15.142Z,1.10
2023-03-07T23:15:44.238Z,1.10
2023-03-07T23:18:11.375Z,1.10
2023-03-07T23:20:39.016Z,1.10
2023-03-07T23:23:06.619Z,1.20
2023-03-07T23:25:34.329Z,1.20
2023-03-07T23:28:01.475Z,1.20
2023-03-07T23:30:29.608Z,1.20
2023-03-07T23:32:56.982Z,1.30
2023-03-07T23:35:24.457Z,1.20
2023-03-07T23:37:51.799Z,1.20
2023-03-07T23:40:19.511Z,1.20
2023-03-07T23:42:47.110Z,1.20
2023-03-07T23:45:14.545Z,1.10
2023-03-07T23:47:41.813Z,1.20
2023-03-07T23:50:10.452Z,1.20
2023-03-07T23:52:37.628Z,1.20
2023-03-07T23:55:08.994Z,1.20
2023-03-07T23:57:37.112Z,1.20
